createdAt,value
2018-07-13T00:01:33.629Z,65.50
2018-07-13T00:04:04.036Z,64.30
2018-07-13T00:06:34.318Z,64.10
2018-07-13T00:09:06.565Z,64.93
2018-07-13T00:11:36.806Z,65.67
2018-07-13T00:14:15.192Z,66.30
2018-07-13T00:16:46.880Z,64.83
2018-07-13T00:19:17.851Z,65.10
2018-07-13T00:21:47.864Z,65.77
2018-07-13T00:24:18.365Z,66.93
2018-07-13T00:26:48.689Z,66.90
2018-07-13T00:29:19.168Z,67.00
2018-07-13T00:31:49.546Z,68.80
2018-07-13T00:34:19.852Z,66.93
2018-07-13T00:36:51.045Z,64.77
2018-07-13T00:39:21.244Z,64.67
2018-07-13T00:41:52.535Z,66.00
2018-07-13T00:44:22.643Z,63.30
2018-07-13T00:46:52.837Z,64.37
2018-07-13T00:49:23.467Z,62.53
2018-07-13T00:51:54.949Z,64.50
2018-07-13T00:54:25.471Z,65.47
2018-07-13T00:56:57.357Z,66.27
2018-07-13T00:59:29.156Z,64.23
2018-07-13T01:02:00.058Z,63.27
2018-07-13T01:04:30.625Z,64.07
2018-07-13T01:07:01.391Z,64.27
2018-07-13T01:09:32.782Z,63.87
2018-07-13T01:12:02.755Z,64.30
2018-07-13T01:14:33.191Z,64.13
2018-07-13T01:17:03.572Z,63.90
2018-07-13T01:19:35.810Z,68.80
2018-07-13T01:22:08.292Z,65.37
2018-07-13T01:24:39.044Z,64.13
2018-07-13T01:27:09.532Z,62.87
2018-07-13T01:29:41.682Z,63.03
2018-07-13T01:32:12.011Z,64.10
2018-07-13T01:34:43.549Z,64.37
2018-07-13T01:37:13.633Z,67.30
2018-07-13T01:39:43.913Z,64.53
2018-07-13T01:42:13.994Z,64.73
2018-07-13T01:44:44.592Z,64.50
2018-07-13T01:47:15.375Z,64.33
2018-07-13T01:49:45.999Z,62.27
2018-07-13T01:52:16.221Z,62.77
2018-07-13T01:54:46.349Z,61.20
2018-07-13T01:57:16.727Z,61.73
2018-07-13T01:59:46.960Z,62.57
2018-07-13T02:02:17.081Z,62.23
2018-07-13T02:04:47.515Z,62.77
2018-07-13T02:07:18.611Z,61.67
2018-07-13T02:09:49.684Z,62.10
2018-07-13T02:12:19.922Z,62.97
2018-07-13T02:14:50.446Z,62.43
2018-07-13T02:17:20.571Z,65.07
2018-07-13T02:19:51.692Z,65.57
2018-07-13T02:22:21.855Z,80.67
2018-07-13T02:24:51.916Z,62.73
2018-07-13T02:27:22.805Z,63.77
2018-07-13T02:29:52.935Z,62.40
2018-07-13T02:32:23.131Z,64.10
2018-07-13T02:34:53.402Z,61.53
2018-07-13T02:37:23.530Z,62.47
2018-07-13T02:39:53.822Z,61.87
2018-07-13T02:42:24.080Z,61.60
2018-07-13T02:44:54.588Z,63.03
2018-07-13T02:47:25.422Z,63.30
2018-07-13T02:49:55.513Z,61.67
2018-07-13T02:52:25.560Z,62.13
2018-07-13T02:54:55.780Z,62.20
2018-07-13T02:57:26.130Z,62.10
2018-07-13T02:59:57.146Z,63.63
2018-07-13T03:02:27.243Z,63.97
2018-07-13T03:04:58.440Z,63.00
2018-07-13T03:07:29.479Z,61.23
2018-07-13T03:10:00.037Z,60.17
2018-07-13T03:12:30.436Z,60.40
2018-07-13T03:15:00.916Z,62.53
2018-07-13T03:17:31.149Z,63.97
2018-07-13T03:20:03.591Z,61.77
2018-07-13T03:22:35.742Z,61.47
2018-07-13T03:25:06.189Z,61.07
2018-07-13T03:27:36.498Z,61.90
2018-07-13T03:30:06.670Z,66.47
2018-07-13T03:32:36.654Z,60.87
2018-07-13T03:35:07.113Z,61.20
2018-07-13T03:37:36.840Z,63.03
2018-07-13T03:40:07.210Z,62.80
2018-07-13T03:42:37.279Z,62.80
2018-07-13T03:45:08.079Z,61.40
2018-07-13T03:47:38.074Z,61.67
2018-07-13T03:50:08.549Z,61.87
2018-07-13T03:52:39.080Z,61.43
2018-07-13T03:55:09.439Z,62.03
2018-07-13T03:57:39.903Z,60.80
2018-07-13T04:00:11.038Z,62.33
2018-07-13T04:02:41.654Z,61.60
2018-07-13T04:05:12.194Z,61.53
2018-07-13T04:07:42.381Z,65.80
2018-07-13T04:10:12.769Z,64.40
2018-07-13T04:12:43.129Z,61.40
2018-07-13T04:15:14.824Z,62.67
2018-07-13T04:17:45.657Z,61.83
2018-07-13T04:20:16.589Z,63.40
2018-07-13T04:22:46.891Z,63.27
2018-07-13T04:25:17.576Z,62.47
2018-07-13T04:27:49.395Z,63.33
2018-07-13T04:30:19.989Z,63.47
2018-07-13T04:32:49.993Z,61.97
2018-07-13T04:35:20.528Z,63.37
2018-07-13T04:37:50.850Z,63.53
2018-07-13T04:40:21.206Z,62.13
2018-07-13T04:42:51.480Z,60.50
2018-07-13T04:45:21.892Z,62.80
2018-07-13T04:47:52.989Z,67.20
2018-07-13T04:50:23.455Z,66.13
2018-07-13T04:52:55.007Z,63.97
2018-07-13T04:55:26.091Z,63.53
2018-07-13T04:57:56.421Z,62.53
2018-07-13T05:00:27.082Z,65.47
2018-07-13T05:02:57.682Z,63.23
2018-07-13T05:05:29.543Z,65.07
2018-07-13T05:08:01.330Z,62.90
2018-07-13T05:10:32.207Z,60.33
2018-07-13T05:13:02.224Z,61.50
2018-07-13T05:15:32.540Z,61.97
2018-07-13T05:18:03.893Z,63.30
2018-07-13T05:20:34.500Z,63.67
2018-07-13T05:23:05.541Z,62.20
2018-07-13T05:25:36.845Z,64.63
2018-07-13T05:28:08.847Z,64.57
2018-07-13T05:30:39.846Z,64.23
2018-07-13T05:33:10.397Z,65.80
2018-07-13T05:35:40.857Z,64.10
2018-07-13T05:38:11.095Z,63.40
2018-07-13T05:40:42.210Z,64.50
2018-07-13T05:43:12.446Z,64.23
2018-07-13T05:45:43.179Z,66.23
2018-07-13T05:48:13.475Z,66.23
2018-07-13T05:50:44.788Z,64.17
2018-07-13T05:53:16.766Z,64.23
2018-07-13T05:55:48.648Z,62.63
2018-07-13T05:58:19.327Z,67.00
2018-07-13T06:00:49.821Z,64.43
2018-07-13T06:03:20.420Z,66.07
2018-07-13T06:05:51.064Z,62.83
2018-07-13T06:08:21.664Z,62.90
2018-07-13T06:10:51.983Z,63.77
2018-07-13T06:13:22.724Z,64.73
2018-07-13T06:15:54.318Z,63.93
2018-07-13T06:18:24.778Z,64.00
2018-07-13T06:20:55.674Z,64.20
2018-07-13T06:23:26.142Z,66.30
2018-07-13T06:25:56.765Z,68.20
2018-07-13T06:28:26.982Z,64.73
2018-07-13T06:30:57.351Z,64.53
2018-07-13T06:33:27.742Z,66.03
2018-07-13T06:35:58.813Z,65.97
2018-07-13T06:38:29.461Z,67.67
2018-07-13T06:40:59.862Z,65.73
2018-07-13T06:43:30.936Z,65.90
2018-07-13T06:46:01.098Z,64.87
2018-07-13T06:48:31.493Z,66.07
2018-07-13T06:51:01.913Z,67.03
2018-07-13T06:53:32.618Z,67.97
2018-07-13T06:56:02.986Z,66.80
2018-07-13T06:58:49.581Z,69.13
2018-07-13T07:01:20.208Z,83.43
2018-07-13T07:04:24.861Z,66.37
2018-07-13T07:06:56.074Z,65.27
2018-07-13T07:09:28.086Z,67.17
2018-07-13T07:13:16.631Z,68.43
2018-07-13T07:15:53.728Z,68.53
2018-07-13T07:18:24.158Z,69.90
2018-07-13T07:20:55.247Z,70.03
2018-07-13T07:23:27.058Z,69.50
2018-07-13T07:25:58.781Z,68.90
2018-07-13T07:28:29.208Z,67.33
2018-07-13T07:31:00.754Z,66.93
2018-07-13T07:33:31.921Z,76.07
2018-07-13T07:36:02.277Z,67.73
2018-07-13T07:38:33.577Z,68.23
2018-07-13T07:41:10.443Z,68.23
2018-07-13T07:43:41.516Z,69.77
2018-07-13T07:46:11.599Z,69.73
2018-07-13T07:48:50.790Z,70.50
2018-07-13T07:51:21.137Z,67.10
2018-07-13T07:53:51.397Z,67.70
2018-07-13T07:56:22.248Z,65.27
2018-07-13T07:58:52.659Z,67.67
2018-07-13T08:01:23.301Z,68.90
2018-07-13T08:03:53.546Z,70.00
2018-07-13T08:06:26.846Z,70.10
2018-07-13T08:08:57.969Z,69.73
2018-07-13T08:11:29.066Z,69.53
2018-07-13T08:14:00.687Z,69.67
2018-07-13T08:16:31.518Z,72.37
2018-07-13T08:19:03.377Z,73.73
2018-07-13T08:21:36.951Z,71.63
2018-07-13T08:24:08.137Z,69.70
2018-07-13T08:26:39.460Z,73.63
2018-07-13T08:29:10.944Z,71.23
2018-07-13T08:31:41.106Z,73.73
2018-07-13T08:34:11.962Z,77.87
2018-07-13T08:36:42.247Z,72.63
2018-07-13T08:39:12.981Z,73.50
2018-07-13T08:41:43.859Z,83.03
2018-07-13T08:44:14.194Z,71.77
2018-07-13T08:46:44.502Z,71.43
2018-07-13T08:49:15.041Z,72.73
2018-07-13T08:51:46.354Z,73.03
2018-07-13T08:54:17.619Z,73.53
2018-07-13T08:56:48.601Z,74.23
2018-07-13T08:59:19.570Z,74.60
2018-07-13T09:01:50.344Z,71.83
2018-07-13T09:04:20.668Z,77.93
2018-07-13T09:06:51.089Z,73.50
2018-07-13T09:09:21.723Z,71.47
2018-07-13T09:11:52.721Z,73.87
2018-07-13T09:14:23.070Z,71.10
2018-07-13T09:16:53.244Z,75.23
2018-07-13T09:19:23.926Z,73.30
2018-07-13T09:21:55.022Z,71.63
2018-07-13T09:24:25.856Z,72.60
2018-07-13T09:26:56.310Z,72.47
2018-07-13T09:29:27.557Z,73.90
2018-07-13T09:31:57.802Z,74.07
2018-07-13T09:34:29.034Z,73.33
2018-07-13T09:37:00.386Z,73.03
2018-07-13T09:39:31.987Z,71.80
2018-07-13T09:42:02.345Z,73.17
2018-07-13T09:44:33.378Z,76.47
2018-07-13T09:47:04.383Z,73.67
2018-07-13T09:49:34.770Z,77.13
2018-07-13T09:52:05.302Z,74.47
2018-07-13T09:54:35.767Z,74.80
2018-07-13T09:57:05.593Z,75.93
2018-07-13T09:59:36.117Z,75.63
2018-07-13T10:02:06.933Z,74.57
2018-07-13T10:04:37.298Z,79.37
2018-07-13T10:07:08.758Z,76.13
2018-07-13T10:09:39.378Z,75.13
2018-07-13T10:12:10.492Z,76.07
2018-07-13T10:14:41.121Z,75.33
2018-07-13T10:17:11.665Z,74.90
2018-07-13T10:19:42.010Z,81.33
2018-07-13T10:22:16.789Z,75.97
2018-07-13T10:24:49.240Z,75.03
2018-07-13T10:27:23.937Z,75.87
2018-07-13T10:29:57.069Z,76.00
2018-07-13T10:32:27.727Z,78.17
2018-07-13T10:34:59.147Z,75.17
2018-07-13T10:37:31.993Z,76.43
2018-07-13T10:40:02.306Z,75.93
2018-07-13T10:42:32.621Z,75.80
2018-07-13T10:45:03.458Z,75.67
2018-07-13T10:47:33.682Z,76.13
2018-07-13T10:50:04.066Z,78.30
2018-07-13T10:52:34.326Z,75.57
2018-07-13T10:55:06.044Z,79.63
2018-07-13T10:57:36.197Z,79.47
2018-07-13T11:00:06.567Z,79.30
2018-07-13T11:02:38.017Z,78.57
2018-07-13T11:05:08.407Z,76.07
2018-07-13T11:07:38.465Z,77.20
2018-07-13T11:10:08.845Z,79.40
2018-07-13T11:12:39.700Z,78.23
2018-07-13T11:15:09.729Z,79.43
2018-07-13T11:17:40.042Z,77.10
2018-07-13T11:20:10.390Z,75.40
2018-07-13T11:22:41.765Z,82.73
2018-07-13T11:25:11.993Z,78.73
2018-07-13T11:27:42.755Z,75.03
2018-07-13T11:30:13.776Z,76.30
2018-07-13T11:32:43.963Z,75.40
2018-07-13T11:35:14.079Z,76.97
2018-07-13T11:37:44.243Z,79.63
2018-07-13T11:40:15.129Z,78.73
2018-07-13T11:42:45.778Z,76.40
2018-07-13T11:45:16.495Z,77.57
2018-07-13T11:47:46.895Z,77.73
2018-07-13T11:50:17.033Z,78.10
2018-07-13T11:52:47.366Z,77.23
2018-07-13T11:55:18.549Z,78.10
2018-07-13T11:57:50.753Z,80.57
2018-07-13T12:00:21.066Z,82.53
2018-07-13T12:02:51.141Z,79.07
2018-07-13T12:05:21.481Z,78.80
2018-07-13T12:07:51.690Z,78.10
2018-07-13T12:10:22.590Z,78.13
2018-07-13T12:12:53.510Z,80.67
2018-07-13T12:15:23.778Z,77.77
2018-07-13T12:17:54.250Z,83.23
2018-07-13T12:20:26.145Z,75.67
2018-07-13T12:22:56.182Z,76.27
2018-07-13T12:25:27.437Z,77.67
2018-07-13T12:27:57.645Z,76.97
2018-07-13T12:30:28.685Z,78.20
2018-07-13T12:32:59.736Z,76.77
2018-07-13T12:35:29.995Z,79.60
2018-07-13T12:38:00.619Z,79.30
2018-07-13T12:40:31.411Z,76.60
2018-07-13T12:43:01.645Z,75.90
2018-07-13T12:45:33.067Z,79.97
2018-07-13T12:48:03.754Z,76.53
2018-07-13T12:50:34.253Z,76.20
2018-07-13T12:53:05.172Z,75.90
2018-07-13T12:55:35.331Z,76.30
2018-07-13T12:58:05.813Z,77.73
2018-07-13T13:00:36.385Z,77.27
2018-07-13T13:03:06.815Z,76.87
2018-07-13T13:05:37.088Z,77.30
2018-07-13T13:08:07.197Z,76.33
2018-07-13T13:10:37.369Z,79.30
2018-07-13T13:13:07.776Z,76.70
2018-07-13T13:15:38.416Z,77.57
2018-07-13T13:18:08.408Z,78.17
2018-07-13T13:20:38.761Z,75.90
2018-07-13T13:23:09.488Z,75.90
2018-07-13T13:25:40.164Z,78.60
2018-07-13T13:28:11.386Z,80.07
2018-07-13T13:30:42.141Z,74.60
2018-07-13T13:33:12.640Z,76.30
2018-07-13T13:35:42.940Z,78.27
2018-07-13T13:38:13.027Z,78.43
2018-07-13T13:40:43.764Z,78.50
2018-07-13T13:43:14.173Z,77.73
2018-07-13T13:45:54.516Z,80.53
2018-07-13T13:48:24.677Z,83.67
2018-07-13T13:50:56.291Z,160.60
2018-07-13T13:53:26.685Z,111.33
2018-07-13T13:55:57.680Z,100.93
2018-07-13T13:58:27.721Z,89.57
2018-07-13T14:00:58.184Z,80.33
2018-07-13T14:03:28.963Z,84.67
2018-07-13T14:05:59.637Z,79.83
2018-07-13T14:08:29.852Z,80.40
2018-07-13T14:11:00.177Z,76.53
2018-07-13T14:13:30.471Z,80.23
2018-07-13T14:16:01.411Z,79.77
2018-07-13T14:18:31.828Z,79.43
2018-07-13T14:21:03.026Z,82.57
2018-07-13T14:23:33.920Z,84.20
2018-07-13T14:26:04.468Z,77.60
2018-07-13T14:28:35.261Z,78.70
2018-07-13T14:31:05.637Z,80.43
2018-07-13T14:33:36.013Z,81.70
2018-07-13T14:36:06.363Z,80.30
2018-07-13T14:38:37.136Z,78.83
2018-07-13T14:41:07.566Z,83.47
2018-07-13T14:43:40.857Z,79.45
2018-07-13T14:46:11.237Z,83.85
2018-07-13T14:48:42.171Z,81.47
2018-07-13T14:51:12.448Z,80.65
2018-07-13T14:53:43.112Z,81.30
2018-07-13T14:56:13.447Z,81.97
2018-07-13T14:58:43.934Z,80.20
2018-07-13T15:01:13.910Z,89.42
2018-07-13T15:03:43.860Z,84.97
2018-07-13T15:06:14.335Z,80.95
2018-07-13T15:08:44.335Z,82.30
2018-07-13T15:11:16.130Z,82.70
2018-07-13T15:13:47.269Z,82.47
2018-07-13T15:16:18.516Z,82.42
2018-07-13T15:18:49.020Z,82.80
2018-07-13T15:21:19.292Z,82.17
2018-07-13T15:23:49.370Z,80.20
2018-07-13T15:26:20.786Z,84.42
2018-07-13T15:28:51.812Z,84.75
2018-07-13T15:31:22.112Z,81.67
2018-07-13T15:33:52.468Z,84.75
2018-07-13T15:36:22.667Z,80.85
2018-07-13T15:38:53.084Z,82.67
2018-07-13T15:41:24.182Z,82.02
2018-07-13T15:43:54.464Z,82.20
2018-07-13T15:46:24.557Z,81.42
2018-07-13T15:48:54.679Z,79.77
2018-07-13T15:51:24.975Z,81.22
2018-07-13T15:53:55.658Z,81.47
2018-07-13T15:56:25.625Z,80.65
2018-07-13T15:58:57.255Z,80.12
2018-07-13T16:01:27.983Z,80.75
2018-07-13T16:03:59.436Z,81.42
2018-07-13T16:06:29.717Z,82.53
2018-07-13T16:08:59.799Z,81.23
2018-07-13T16:11:30.753Z,84.77
2018-07-13T16:14:00.994Z,79.50
2018-07-13T16:16:31.534Z,79.20
2018-07-13T16:19:01.920Z,79.67
2018-07-13T16:21:33.383Z,80.33
2018-07-13T16:24:03.991Z,84.03
2018-07-13T16:26:34.126Z,82.77
2018-07-13T16:29:04.859Z,82.90
2018-07-13T16:31:35.371Z,79.73
2018-07-13T16:34:05.724Z,79.13
2018-07-13T16:36:41.088Z,79.73
2018-07-13T16:39:11.383Z,80.73
2018-07-13T16:41:41.771Z,78.90
2018-07-13T16:44:12.113Z,77.03
2018-07-13T16:46:43.714Z,80.00
2018-07-13T16:49:14.405Z,80.53
2018-07-13T16:51:44.928Z,82.90
2018-07-13T16:54:15.257Z,80.47
2018-07-13T16:56:47.380Z,79.80
2018-07-13T16:59:17.522Z,77.93
2018-07-13T17:01:48.506Z,79.37
2018-07-13T17:04:19.521Z,77.80
2018-07-13T17:06:50.073Z,83.33
2018-07-13T17:09:20.224Z,83.07
2018-07-13T17:11:51.037Z,87.17
2018-07-13T17:14:21.836Z,82.10
2018-07-13T17:16:52.140Z,76.77
2018-07-13T17:19:23.012Z,82.47
2018-07-13T17:21:53.481Z,78.37
2018-07-13T17:24:24.014Z,82.30
2018-07-13T17:26:54.482Z,74.27
2018-07-13T17:29:24.785Z,76.43
2018-07-13T17:31:55.723Z,79.77
2018-07-13T17:34:26.027Z,74.40
2018-07-13T17:36:56.130Z,75.50
2018-07-13T17:39:26.901Z,83.40
2018-07-13T17:41:58.050Z,74.97
2018-07-13T17:44:28.356Z,76.77
2018-07-13T17:46:58.594Z,75.27
2018-07-13T17:49:29.860Z,74.17
2018-07-13T17:52:00.145Z,74.30
2018-07-13T17:54:31.357Z,74.97
2018-07-13T17:57:02.149Z,76.40
2018-07-13T17:59:32.693Z,75.33
2018-07-13T18:02:08.814Z,71.63
2018-07-13T18:04:39.265Z,71.57
2018-07-13T18:07:16.129Z,70.67
2018-07-13T18:09:47.366Z,69.80
2018-07-13T18:12:18.405Z,73.83
2018-07-13T18:14:49.159Z,71.63
2018-07-13T18:17:20.909Z,72.70
2018-07-13T18:19:51.045Z,76.33
2018-07-13T18:22:22.110Z,72.97
2018-07-13T18:24:52.157Z,77.73
2018-07-13T18:27:22.717Z,75.33
2018-07-13T18:29:54.365Z,72.53
2018-07-13T18:32:25.677Z,73.63
2018-07-13T18:34:55.810Z,76.73
2018-07-13T18:37:26.632Z,74.10
2018-07-13T18:39:59.253Z,75.90
2018-07-13T18:42:29.659Z,76.00
2018-07-13T18:44:59.950Z,74.03
2018-07-13T18:47:30.971Z,73.40
2018-07-13T18:50:01.009Z,74.70
2018-07-13T18:52:31.496Z,75.23
2018-07-13T18:55:01.878Z,71.90
2018-07-13T18:57:32.693Z,73.93
2018-07-13T19:00:03.150Z,73.37
2018-07-13T19:02:33.193Z,71.43
2018-07-13T19:05:03.329Z,74.63
2018-07-13T19:07:33.512Z,71.30
2018-07-13T19:10:06.215Z,71.77
2018-07-13T19:12:36.747Z,74.33
2018-07-13T19:15:08.051Z,74.20
2018-07-13T19:17:39.065Z,72.60
2018-07-13T19:20:10.742Z,76.43
2018-07-13T19:22:41.389Z,73.13
2018-07-13T19:25:11.531Z,73.80
2018-07-13T19:27:42.024Z,73.13
2018-07-13T19:30:12.099Z,75.13
2018-07-13T19:32:42.878Z,74.33
2018-07-13T19:35:13.175Z,75.43
2018-07-13T19:37:44.273Z,76.60
2018-07-13T19:40:15.375Z,75.57
2018-07-13T19:42:45.705Z,72.57
2018-07-13T19:45:16.077Z,75.37
2018-07-13T19:47:47.110Z,75.47
2018-07-13T19:50:18.306Z,76.27
2018-07-13T19:52:49.417Z,74.80
2018-07-13T19:55:21.674Z,75.80
2018-07-13T19:57:51.879Z,74.80
2018-07-13T20:00:24.493Z,76.67
2018-07-13T20:02:55.570Z,74.07
2018-07-13T20:05:26.089Z,71.10
2018-07-13T20:07:57.274Z,72.77
2018-07-13T20:10:27.685Z,72.33
2018-07-13T20:12:57.958Z,69.43
2018-07-13T20:15:28.525Z,73.93
2018-07-13T20:17:58.598Z,70.63
2018-07-13T20:20:28.907Z,72.00
2018-07-13T20:22:59.495Z,71.03
2018-07-13T20:25:30.050Z,70.07
2018-07-13T20:28:00.957Z,68.63
2018-07-13T20:30:32.021Z,70.07
2018-07-13T20:33:01.882Z,69.50
2018-07-13T20:35:32.902Z,72.13
2018-07-13T20:38:03.199Z,71.80
2018-07-13T20:40:35.543Z,72.90
2018-07-13T20:43:07.102Z,69.07
2018-07-13T20:45:38.975Z,72.80
2018-07-13T20:48:10.182Z,73.37
2018-07-13T20:50:41.334Z,70.20
2018-07-13T20:53:11.567Z,70.60
2018-07-13T20:55:41.898Z,73.03
2018-07-13T20:58:12.300Z,73.13
2018-07-13T21:00:43.372Z,68.93
2018-07-13T21:03:13.737Z,70.33
2018-07-13T21:05:44.521Z,70.17
2018-07-13T21:08:14.627Z,74.97
2018-07-13T21:10:44.936Z,71.47
2018-07-13T21:13:15.336Z,71.03
2018-07-13T21:15:46.365Z,70.03
2018-07-13T21:18:17.493Z,69.87
2018-07-13T21:20:47.841Z,71.20
2018-07-13T21:23:18.263Z,72.50
2018-07-13T21:25:48.721Z,71.90
2018-07-13T21:28:19.134Z,74.03
2018-07-13T21:30:51.342Z,71.23
2018-07-13T21:33:23.158Z,74.07
2018-07-13T21:35:54.030Z,70.60
2018-07-13T21:38:28.586Z,71.00
2018-07-13T21:41:00.144Z,71.90
2018-07-13T21:43:35.031Z,71.17
2018-07-13T21:46:06.710Z,75.27
2018-07-13T21:48:37.020Z,72.27
2018-07-13T21:51:16.890Z,71.33
2018-07-13T21:54:39.574Z,73.77
2018-07-13T21:57:13.131Z,73.83
2018-07-13T21:59:46.694Z,72.57
2018-07-13T22:02:16.909Z,73.23
2018-07-13T22:04:47.034Z,74.10
2018-07-13T22:07:22.473Z,74.03
2018-07-13T22:09:57.174Z,76.23
2018-07-13T22:12:28.756Z,73.37
2018-07-13T22:14:59.963Z,76.93
2018-07-13T22:17:30.151Z,73.90
2018-07-13T22:20:02.141Z,72.80
2018-07-13T22:22:33.627Z,71.43
2018-07-13T22:25:05.378Z,78.37
2018-07-13T22:27:36.019Z,72.13
2018-07-13T22:30:09.984Z,71.83
2018-07-13T22:32:41.664Z,71.77
2018-07-13T22:35:18.831Z,71.57
2018-07-13T22:37:53.414Z,72.57
2018-07-13T22:40:26.587Z,72.40
2018-07-13T22:42:57.544Z,72.23
2018-07-13T22:45:28.309Z,70.37
2018-07-13T22:47:58.424Z,73.30
2018-07-13T22:50:28.675Z,71.33
2018-07-13T22:52:59.937Z,73.07
2018-07-13T22:55:31.135Z,73.93
2018-07-13T22:58:01.604Z,69.93
2018-07-13T23:00:32.071Z,97.00
2018-07-13T23:03:02.453Z,70.53
2018-07-13T23:05:32.609Z,70.23
2018-07-13T23:08:03.052Z,73.10
2018-07-13T23:10:33.315Z,70.00
2018-07-13T23:13:05.142Z,70.83
2018-07-13T23:15:35.460Z,70.53
2018-07-13T23:18:05.945Z,69.87
2018-07-13T23:20:36.352Z,69.53
2018-07-13T23:23:07.956Z,68.23
2018-07-13T23:25:41.002Z,71.17
2018-07-13T23:28:11.400Z,71.17
2018-07-13T23:30:41.458Z,71.27
2018-07-13T23:33:12.251Z,72.33
2018-07-13T23:35:43.600Z,70.53
2018-07-13T23:38:13.889Z,71.00
2018-07-13T23:40:44.597Z,72.60
2018-07-13T23:43:16.148Z,71.67
2018-07-13T23:45:46.326Z,72.87
2018-07-13T23:48:16.901Z,71.13
2018-07-13T23:50:47.901Z,73.37
2018-07-13T23:53:17.932Z,73.27
2018-07-13T23:55:49.573Z,70.67
2018-07-13T23:58:19.987Z,74.03
